KFSM/FSM METAR and TAF weather

Enter ICAO airport designator
Station Type Date Time Source
KFSM METAR 2022/06/25 22:53 UTC NOAA

KFSM 252253Z 18008KT 10SM CLR 37/21 A2992 RMK AO2 SLP123 T03670211


Station Type Date Time Source
KFSM Decoded METAR 2022/06/25 22:53 UTC NOAA

FORT SMITH REGIONAL AIRPORT, AR, United States (KFSM) 35-20N 94-22W 140M
Jun 25, 2022 - 06:53 PM EDT / 2022.06.25 2253 UTC
Wind: from the S (180 degrees) at 9 MPH (8 KT):0
Visibility: 10 mile(s):0
Sky conditions: clear
Temperature: 98.1 F (36.7 C)
Heat index: 105.1 F (40.6 C):1
Dew Point: 70.0 F (21.1 C)
Relative Humidity: 40%
Pressure (altimeter): 29.92 in. Hg (1013 hPa)
ob: KFSM 252253Z 18008KT 10SM CLR 37/21 A2992 RMK AO2 SLP123 T03670211
cycle: 23

Station Type Date Time Source
KFSM TAF 2022/06/25 18:22 UTC NOAA

TAF KFSM 251720Z 2518/2618 20007KT P6SM SKC
FM260000 VRB04KT P6SM SCT250
FM261500 02011KT P6SM VCSH SCT025 BKN250

Example: see airport list